Terminal Aerodrome Forecast
Issued by NWS

Home | Current Version | Previous Version | Text Only | Print | Product List | Glossary On
Versions: 1 2 3 4 5 6 7 8 9 10 11 12 13 14 15 16 17 18 19 20 21 22 23 24 25 26 27 28 29 30 31 32 33 34 35 36 37 38 39
000
FTUS45 KBOU 282114 AAB
TAFAPA
TAF AMD
KAPA 282114Z 2821/2918 34016G28KT P6SM FEW080 SCT150 BKN220
     FM290100 01014G22KT P6SM SCT070 BKN100 OVC200
     FM290400 02008KT P6SM SCT040 BKN070 BKN100
     FM291000 04006KT P6SM SCT030 BKN060 OVC100
     FM291600 12005KT P6SM SCT050 BKN100=

USA.gov is the U.S. government's official web portal to all federal, state and local government web resources and services.